Time;durP1;ratioP1;P1;durP2;ratioP2;P2;SDS_P1;SDS_P2;PMS_P1;PMS_P2;Temp;Humidity;BMP_temperature;BMP_pressure;BME280_temperature;BME280_humidity;BME280_pressure;Samples;Min_cycle;Max_cycle;Signal;HPM_P1;HPM_P2
2020/12/20 00:00:14;;;;;;;31.23;21.27;;;;;;;12.57;71.16;101679.91;5073658;28;20040;-42
2020/12/20 00:02:41;;;;;;;25.60;21.38;;;;;;;12.49;71.84;101679.19;5074031;28;20394;-44
2020/12/20 00:05:07;;;;;;;32.00;23.70;;;;;;;12.52;71.47;101691.38;5077719;28;20033;-44
2020/12/20 00:07:33;;;;;;;35.08;25.25;;;;;;;12.58;71.41;101674.28;5073273;28;20420;-43
2020/12/20 00:09:59;;;;;;;27.23;19.45;;;;;;;12.58;71.35;101673.47;5073854;28;20040;-43
2020/12/20 00:12:25;;;;;;;32.05;20.95;;;;;;;12.54;70.69;101667.75;5073712;28;20500;-44
2020/12/20 00:14:51;;;;;;;23.73;18.83;;;;;;;12.46;71.37;101679.66;5073983;28;20139;-43
2020/12/20 00:17:16;;;;;;;18.85;11.60;;;;;;;12.68;71.17;101668.38;5074061;28;20029;-46
2020/12/20 00:19:42;;;;;;;27.27;15.57;;;;;;;12.57;71.18;101666.44;5082129;28;20040;-48
2020/12/20 00:22:10;;;;;;;13.50;11.85;;;;;;;12.59;70.87;101667.88;5073675;28;20039;-47
2020/12/20 00:24:36;;;;;;;14.20;12.40;;;;;;;12.67;70.31;101667.56;5073342;28;20118;-46
2020/12/20 00:27:03;;;;;;;21.70;16.67;;;;;;;12.73;70.65;101659.59;5073085;28;20036;-45
2020/12/20 00:29:29;;;;;;;31.10;19.17;;;;;;;12.67;70.96;101664.88;5073807;28;20088;-45
2020/12/20 00:31:55;;;;;;;19.77;14.32;;;;;;;12.66;70.30;101665.09;5073607;28;20126;-50
2020/12/20 00:34:21;;;;;;;30.67;12.20;;;;;;;12.66;70.46;101665.09;5073542;28;20326;-47
2020/12/20 00:36:49;;;;;;;17.73;9.85;;;;;;;12.62;70.12;101662.03;5072853;28;20347;-47
2020/12/20 00:39:16;;;;;;;17.45;15.65;;;;;;;12.68;70.42;101660.28;5073614;28;20078;-45
2020/12/20 00:41:47;;;;;;;20.70;13.60;;;;;;;12.72;70.20;101661.47;5073023;28;20032;-45
2020/12/20 00:44:13;;;;;;;15.88;12.73;;;;;;;12.59;70.62;101667.06;5066204;28;20048;-44
2020/12/20 00:46:38;;;;;;;20.33;14.23;;;;;;;12.61;70.56;101668.47;5073278;28;20036;-44
2020/12/20 00:49:04;;;;;;;11.35;10.35;;;;;;;12.52;70.80;101664.47;5073332;28;20045;-46
2020/12/20 00:51:31;;;;;;;16.02;12.05;;;;;;;12.62;70.54;101655.81;5071429;28;20052;-44
2020/12/20 00:53:56;;;;;;;15.88;11.77;;;;;;;12.46;71.00;101662.69;5073192;28;20436;-43
2020/12/20 00:56:22;;;;;;;17.17;11.55;;;;;;;12.46;71.22;101660.84;5072970;28;20107;-46
2020/12/20 00:58:47;;;;;;;13.70;9.70;;;;;;;12.54;70.64;101656.19;5072938;28;20040;-46
2020/12/20 01:01:13;;;;;;;9.73;8.73;;;;;;;12.64;70.36;101651.03;5072537;28;20470;-44
2020/12/20 01:03:39;;;;;;;12.02;9.15;;;;;;;12.48;70.72;101658.72;5072946;28;20390;-46
2020/12/20 01:06:04;;;;;;;12.68;9.55;;;;;;;12.56;70.34;101665.63;5072771;28;20037;-43
2020/12/20 01:08:30;;;;;;;10.48;9.43;;;;;;;12.58;70.75;101658.16;5072942;28;20041;-44
2020/12/20 01:10:56;;;;;;;13.80;11.18;;;;;;;12.52;70.38;101642.09;5072338;28;20032;-45
2020/12/20 01:13:21;;;;;;;13.27;11.70;;;;;;;12.57;70.61;101651.16;5072556;28;20493;-43
2020/12/20 01:15:47;;;;;;;10.40;8.50;;;;;;;12.52;70.58;101652.88;5072699;28;20466;-44
2020/12/20 01:18:12;;;;;;;16.80;12.18;;;;;;;12.47;70.99;101642.81;5072621;28;20117;-43
2020/12/20 01:20:39;;;;;;;17.13;12.60;;;;;;;12.48;70.22;101641.75;5072530;28;20067;-44
2020/12/20 01:23:05;;;;;;;20.85;15.18;;;;;;;12.28;70.85;101642.06;5072288;28;20040;-44
2020/12/20 01:25:31;;;;;;;13.98;12.68;;;;;;;12.41;71.17;101641.03;5072381;28;20039;-44
2020/12/20 01:27:56;;;;;;;13.35;9.57;;;;;;;12.42;70.53;101638.13;5072391;28;20033;-43
2020/12/20 01:30:22;;;;;;;13.43;11.20;;;;;;;12.42;71.17;101642.69;5072410;28;20029;-45
2020/12/20 01:32:47;;;;;;;11.88;10.65;;;;;;;12.37;70.79;101646.06;5071989;28;20081;-44
2020/12/20 01:35:13;;;;;;;12.80;11.50;;;;;;;12.54;70.95;101653.47;5072539;28;20036;-44
2020/12/20 01:37:39;;;;;;;23.92;16.92;;;;;;;12.52;70.48;101653.72;5072733;28;20087;-44
2020/12/20 01:40:05;;;;;;;18.65;16.23;;;;;;;12.30;71.06;101661.47;5072077;28;20037;-45
2020/12/20 01:42:31;;;;;;;22.48;16.65;;;;;;;12.25;71.00;101658.63;5072432;28;20426;-46
2020/12/20 01:44:57;;;;;;;18.48;15.23;;;;;;;12.30;71.32;101656.91;5072310;28;20162;-43
2020/12/20 01:47:23;;;;;;;34.15;15.43;;;;;;;12.31;70.56;101655.06;5072019;28;20032;-45
2020/12/20 01:49:48;;;;;;;21.92;18.55;;;;;;;12.21;70.69;101660.16;5071058;28;20114;-44
2020/12/20 01:52:14;;;;;;;38.70;19.27;;;;;;;12.14;71.02;101651.34;5071867;28;20112;-44
2020/12/20 01:54:44;;;;;;;47.08;26.33;;;;;;;12.20;71.21;101650.44;5072127;28;20120;-46
2020/12/20 01:57:09;;;;;;;24.80;16.95;;;;;;;12.27;70.96;101648.47;5071514;28;20524;-45
2020/12/20 01:59:35;;;;;;;33.53;18.10;;;;;;;12.29;70.73;101651.78;5071936;28;20040;-46
2020/12/20 02:02:01;;;;;;;22.35;14.68;;;;;;;12.17;71.14;101651.72;5071482;28;20047;-44
2020/12/20 02:04:27;;;;;;;16.98;12.55;;;;;;;12.05;71.54;101648.97;5072103;28;20040;-43
2020/12/20 02:06:53;;;;;;;16.60;12.75;;;;;;;12.00;72.04;101648.81;5071531;28;20039;-44
2020/12/20 02:09:21;;;;;;;38.15;17.63;;;;;;;12.08;71.44;101643.16;5071720;28;20439;-43
2020/12/20 02:11:46;;;;;;;18.00;12.50;;;;;;;12.27;71.02;101645.78;5071333;28;20039;-44
2020/12/20 02:14:11;;;;;;;27.02;12.27;;;;;;;12.21;70.90;101641.31;5071841;28;20041;-45
2020/12/20 02:16:37;;;;;;;38.55;12.63;;;;;;;12.27;70.91;101640.41;5071844;28;20033;-43
2020/12/20 02:19:03;;;;;;;11.45;6.93;;;;;;;12.41;70.84;101641.88;5071614;28;20036;-45
2020/12/20 02:21:28;;;;;;;9.07;8.25;;;;;;;12.52;70.15;101651.03;5071792;28;20033;-44
2020/12/20 02:23:54;;;;;;;9.98;7.75;;;;;;;12.56;70.17;101646.81;5071760;28;20433;-43
2020/12/20 02:26:22;;;;;;;10.60;7.65;;;;;;;12.51;70.48;101651.25;5071561;28;20016;-43
2020/12/20 02:28:49;;;;;;;16.65;7.43;;;;;;;12.30;70.93;101646.13;5071503;28;20082;-44
2020/12/20 02:31:14;;;;;;;7.03;6.25;;;;;;;12.43;70.69;101645.16;5071905;28;20059;-43
2020/12/20 02:33:40;;;;;;;11.82;8.45;;;;;;;12.31;70.52;101646.97;5071368;28;20474;-44
2020/12/20 02:36:05;;;;;;;13.93;8.63;;;;;;;12.08;70.99;101647.72;5071140;28;20044;-43
2020/12/20 02:38:31;;;;;;;10.90;7.13;;;;;;;12.02;71.64;101635.97;5071306;28;20036;-44
2020/12/20 02:40:57;;;;;;;9.35;6.93;;;;;;;11.96;71.67;101639.59;5070309;28;20028;-43
2020/12/20 02:43:23;;;;;;;6.63;5.97;;;;;;;11.90;71.61;101646.69;5071226;28;20343;-43
2020/12/20 02:45:49;;;;;;;11.93;6.57;;;;;;;12.16;70.99;101644.69;5071237;28;20082;-44
2020/12/20 02:48:14;;;;;;;9.82;6.63;;;;;;;12.22;70.55;101638.41;5071477;28;20078;-43
2020/12/20 02:50:40;;;;;;;8.57;6.43;;;;;;;12.25;70.95;101647.88;5071427;28;20477;-46
2020/12/20 02:53:05;;;;;;;9.70;8.10;;;;;;;12.16;71.18;101643.88;5071042;28;20045;-43
2020/12/20 02:55:31;;;;;;;9.18;8.27;;;;;;;12.10;71.59;101641.03;5086467;28;20035;-44
2020/12/20 02:57:56;;;;;;;19.92;9.45;;;;;;;12.02;71.56;101635.97;5071261;28;20024;-44
2020/12/20 03:00:22;;;;;;;8.82;5.97;;;;;;;12.21;70.87;101633.25;5071616;28;20035;-45
2020/12/20 03:02:48;;;;;;;7.35;6.63;;;;;;;12.18;70.99;101637.22;5075385;28;20090;-46
2020/12/20 03:05:13;;;;;;;16.23;7.45;;;;;;;12.23;71.04;101631.97;5075322;28;20119;-43
2020/12/20 03:07:39;;;;;;;14.90;6.97;;;;;;;12.25;71.10;101626.38;5075137;28;20051;-45
2020/12/20 03:10:05;;;;;;;8.88;6.05;;;;;;;12.38;70.45;101631.56;5075814;28;20040;-44
2020/12/20 03:12:31;;;;;;;8.68;5.75;;;;;;;12.27;70.34;101617.03;5075034;28;20031;-44
2020/12/20 03:14:56;;;;;;;5.53;4.43;;;;;;;12.23;70.42;101615.03;5074676;28;20045;-44
2020/12/20 03:17:21;;;;;;;13.52;7.95;;;;;;;12.30;70.32;101621.13;5074983;28;20364;-44
2020/12/20 03:19:48;;;;;;;9.15;7.63;;;;;;;12.23;70.23;101626.59;5074935;28;20128;-44
2020/12/20 03:22:14;;;;;;;6.50;5.60;;;;;;;12.35;70.09;101613.19;5074552;28;20172;-44
2020/12/20 03:24:40;;;;;;;8.00;5.68;;;;;;;12.44;70.04;101619.06;5074812;28;20382;-44
2020/12/20 03:27:05;;;;;;;12.82;6.57;;;;;;;12.46;69.28;101615.09;5074496;28;20024;-43
2020/12/20 03:29:31;;;;;;;14.35;4.00;;;;;;;12.42;70.12;101621.97;5074898;28;20149;-45
2020/12/20 03:31:57;;;;;;;5.40;4.88;;;;;;;12.33;70.10;101609.91;5074650;28;20119;-44
2020/12/20 03:34:22;;;;;;;7.22;6.32;;;;;;;12.29;70.39;101614.13;5074685;28;20359;-44
2020/12/20 03:36:48;;;;;;;9.88;5.25;;;;;;;12.22;70.79;101610.69;5074267;28;20035;-44
2020/12/20 03:39:13;;;;;;;7.13;6.47;;;;;;;12.33;70.57;101611.78;5074444;28;20580;-46
2020/12/20 03:41:39;;;;;;;10.00;8.32;;;;;;;12.37;70.59;101616.47;5073955;28;20036;-44
2020/12/20 03:44:04;;;;;;;14.02;11.18;;;;;;;12.28;70.61;101621.34;5074440;28;20040;-44
2020/12/20 03:46:30;;;;;;;11.38;10.20;;;;;;;12.33;70.75;101615.31;5074499;28;20035;-43
2020/12/20 03:48:55;;;;;;;15.35;8.55;;;;;;;12.37;70.23;101610.28;5073867;28;20056;-46
2020/12/20 03:51:21;;;;;;;19.38;11.95;;;;;;;12.25;70.52;101612.94;5074409;28;20036;-44
2020/12/20 03:53:46;;;;;;;13.55;11.95;;;;;;;12.06;71.46;101602.25;5074139;28;20094;-47
2020/12/20 03:56:12;;;;;;;11.68;9.23;;;;;;;12.12;71.09;101603.19;5073776;28;20131;-43
2020/12/20 03:58:37;;;;;;;10.25;8.07;;;;;;;12.17;71.01;101607.91;5074290;28;20032;-44
2020/12/20 04:01:03;;;;;;;18.33;8.32;;;;;;;12.20;70.83;101607.41;5073755;28;20462;-44
2020/12/20 04:03:28;;;;;;;11.30;7.32;;;;;;;12.14;71.09;101603.78;5074078;28;20123;-44
2020/12/20 04:05:53;;;;;;;10.32;8.18;;;;;;;12.16;70.81;101598.97;5073658;28;20025;-44
2020/12/20 04:08:19;;;;;;;14.18;8.20;;;;;;;12.17;71.13;101594.44;5073896;28;20040;-43
2020/12/20 04:10:44;;;;;;;11.95;7.25;;;;;;;12.19;70.87;101595.84;5073286;28;20104;-44
2020/12/20 04:13:10;;;;;;;11.95;8.95;;;;;;;12.24;70.94;101593.28;5073833;28;20059;-45
2020/12/20 04:15:35;;;;;;;10.85;8.75;;;;;;;12.26;70.87;101590.38;5073850;28;20078;-48
2020/12/20 04:18:01;;;;;;;16.30;7.45;;;;;;;12.20;71.42;101596.66;5073675;28;20079;-44
2020/12/20 04:20:26;;;;;;;17.13;8.30;;;;;;;12.09;71.30;101595.56;5073560;28;20078;-43
2020/12/20 04:22:52;;;;;;;6.68;6.03;;;;;;;12.05;71.62;101592.53;5073444;28;20082;-43
2020/12/20 04:25:17;;;;;;;7.90;6.68;;;;;;;12.29;70.85;101596.13;5073326;28;20021;-45
2020/12/20 04:27:42;;;;;;;11.75;6.63;;;;;;;12.36;70.69;101598.72;5073138;28;20360;-44
2020/12/20 04:30:08;;;;;;;8.60;7.00;;;;;;;12.43;70.35;101590.50;5065276;28;20036;-43
2020/12/20 04:32:34;;;;;;;9.45;8.07;;;;;;;12.37;70.40;101592.25;5073935;28;20029;-43
2020/12/20 04:34:59;;;;;;;10.07;7.75;;;;;;;12.38;70.55;101591.22;5073846;28;20036;-44
2020/12/20 04:37:25;;;;;;;9.40;7.93;;;;;;;12.44;70.55;101589.47;5072957;28;20108;-44
2020/12/20 04:39:50;;;;;;;11.45;7.40;;;;;;;12.46;70.83;101588.22;5073173;28;20044;-45
2020/12/20 04:42:16;;;;;;;8.88;7.63;;;;;;;12.33;70.84;101585.72;5073108;28;20480;-44
2020/12/20 04:44:42;;;;;;;14.77;6.13;;;;;;;12.26;71.39;101580.44;5073391;28;20032;-47
2020/12/20 04:47:09;;;;;;;7.47;6.78;;;;;;;12.21;71.36;101576.81;5073160;28;20054;-44
2020/12/20 04:49:36;;;;;;;7.93;5.90;;;;;;;12.23;71.50;101574.69;5072858;28;20064;-46
2020/12/20 04:52:02;;;;;;;9.02;7.60;;;;;;;12.33;71.12;101569.59;5072246;28;20021;-47
2020/12/20 04:54:29;;;;;;;11.00;7.97;;;;;;;12.31;70.98;101560.94;5073512;28;20063;-44
2020/12/20 04:56:55;;;;;;;11.38;7.57;;;;;;;12.31;71.31;101558.25;5072995;28;20031;-45
2020/12/20 04:59:20;;;;;;;8.02;7.03;;;;;;;12.23;72.10;101564.75;5072776;28;20041;-45
2020/12/20 05:01:46;;;;;;;16.35;6.22;;;;;;;12.36;71.28;101566.44;5073223;28;20056;-45
2020/12/20 05:04:11;;;;;;;8.60;6.68;;;;;;;12.28;71.58;101556.81;5073113;28;20063;-44
2020/12/20 05:06:37;;;;;;;6.88;6.03;;;;;;;12.41;71.36;101563.03;5072814;28;20129;-44
2020/12/20 05:09:04;;;;;;;9.60;6.28;;;;;;;12.38;71.41;101560.84;5072981;28;20175;-44
2020/12/20 05:11:37;;;;;;;14.30;8.20;;;;;;;12.33;71.53;101568.78;5072391;28;20028;-48
2020/12/20 05:14:05;;;;;;;18.30;12.70;;;;;;;12.29;71.69;101579.16;5072626;28;20041;-46
2020/12/20 05:16:40;;;;;;;22.15;14.57;;;;;;;12.22;71.51;101595.41;5072878;28;20162;-43
2020/12/20 05:19:08;;;;;;;16.13;14.23;;;;;;;12.20;71.68;101591.28;5072786;28;20052;-45
2020/12/20 05:21:34;;;;;;;17.85;13.73;;;;;;;12.32;71.13;101594.81;5072854;28;20062;-46
2020/12/20 05:24:00;;;;;;;12.85;11.57;;;;;;;12.36;71.22;101585.25;5072114;28;20040;-49
2020/12/20 05:26:30;;;;;;;11.30;9.68;;;;;;;12.36;71.07;101579.03;5072544;28;20035;-43
2020/12/20 05:29:10;;;;;;;15.27;9.50;;;;;;;12.37;71.40;101576.13;5072898;28;20123;-45
2020/12/20 05:31:36;;;;;;;11.15;8.73;;;;;;;12.29;71.45;101579.16;5072623;28;20058;-43
2020/12/20 05:34:03;;;;;;;10.95;7.60;;;;;;;12.29;71.56;101587.22;5072632;28;20048;-46
2020/12/20 05:36:29;;;;;;;9.68;7.80;;;;;;;12.36;71.36;101587.09;5072715;28;20036;-43
2020/12/20 05:39:12;;;;;;;6.13;5.45;;;;;;;12.49;70.88;101584.22;5072479;28;20032;-44
2020/12/20 05:41:37;;;;;;;6.97;5.43;;;;;;;12.52;71.15;101578.38;5071758;28;20020;-43
2020/12/20 05:44:18;;;;;;;10.35;6.20;;;;;;;12.48;71.39;101587.94;5072006;28;20036;-44
2020/12/20 05:46:45;;;;;;;10.10;7.63;;;;;;;12.58;70.88;101584.72;5072022;28;20025;-44
2020/12/20 05:49:21;;;;;;;6.93;5.28;;;;;;;12.46;71.11;101592.75;5071648;28;20448;-46
2020/12/20 05:52:06;;;;;;;14.23;5.97;;;;;;;12.44;71.65;101592.16;5071946;28;20150;-44
2020/12/20 05:54:42;;;;;;;7.80;5.75;;;;;;;12.39;71.06;101595.53;5072086;28;20044;-48
2020/12/20 05:57:12;;;;;;;6.22;4.95;;;;;;;12.27;71.93;101589.31;5071581;28;20074;-43
2020/12/20 05:59:39;;;;;;;6.25;4.30;;;;;;;12.44;71.34;101592.97;5072185;28;20033;-45
2020/12/20 06:02:06;;;;;;;5.60;4.97;;;;;;;12.68;70.50;101593.03;5071859;28;20489;-44
2020/12/20 06:04:33;;;;;;;5.85;3.97;;;;;;;12.59;71.07;101583.66;5070233;28;20097;-44
2020/12/20 06:06:58;;;;;;;6.55;4.75;;;;;;;12.59;70.84;101589.06;5071441;28;20542;-45
2020/12/20 06:09:25;;;;;;;6.10;5.55;;;;;;;12.63;70.77;101595.59;5071949;28;20037;-43
2020/12/20 06:11:58;;;;;;;7.38;5.57;;;;;;;12.76;70.02;101592.69;5071344;28;20036;-43
2020/12/20 06:14:28;;;;;;;9.65;4.97;;;;;;;12.85;69.86;101593.97;5072129;28;20040;-45
2020/12/20 06:17:14;;;;;;;5.63;4.78;;;;;;;12.75;71.12;101592.94;5071695;28;20035;-44
2020/12/20 06:19:51;;;;;;;4.70;3.58;;;;;;;12.74;70.52;101592.09;5071702;28;20040;-44
2020/12/20 06:22:33;;;;;;;4.38;3.90;;;;;;;12.68;71.42;101595.72;5071340;28;20028;-46
2020/12/20 06:25:01;;;;;;;6.45;3.50;;;;;;;12.68;70.70;101595.72;5071557;28;20416;-44
2020/12/20 06:27:31;;;;;;;5.88;4.60;;;;;;;12.68;70.95;101601.91;5071330;28;20374;-46
2020/12/20 06:30:05;;;;;;;10.05;6.25;;;;;;;12.69;71.36;101602.72;5071613;28;20045;-45
2020/12/20 06:32:40;;;;;;;15.65;8.10;;;;;;;12.48;71.50;101599.56;5071635;28;20036;-45
2020/12/20 06:35:26;;;;;;;20.00;11.15;;;;;;;12.41;71.94;101614.97;5071481;28;20040;-43
2020/12/20 06:37:53;;;;;;;12.15;7.63;;;;;;;12.53;71.06;101606.09;5071501;28;20534;-44
2020/12/20 06:40:40;;;;;;;12.15;9.82;;;;;;;12.52;71.66;101610.66;5071084;28;20032;-44
2020/12/20 06:43:07;;;;;;;10.98;8.20;;;;;;;12.53;71.91;101622.25;5070855;28;20102;-45
2020/12/20 06:45:43;;;;;;;8.63;7.75;;;;;;;12.55;71.42;101633.59;5071358;28;20032;-49
2020/12/20 06:48:10;;;;;;;9.07;6.57;;;;;;;12.58;70.96;101631.25;5071170;28;20051;-44
2020/12/20 06:50:44;;;;;;;8.65;7.57;;;;;;;12.60;71.00;101622.97;5071475;28;20052;-45
2020/12/20 06:53:12;;;;;;;7.13;6.10;;;;;;;12.52;71.21;101631.34;5070699;28;20041;-51
2020/12/20 06:55:39;;;;;;;9.45;7.05;;;;;;;12.56;71.10;101635.25;5071609;28;20033;-45
2020/12/20 06:58:04;;;;;;;7.03;6.40;;;;;;;12.61;70.98;101636.19;5071465;28;20043;-45
2020/12/20 07:00:46;;;;;;;9.07;6.40;;;;;;;12.55;70.98;101636.28;5071596;28;20028;-44
2020/12/20 07:03:32;;;;;;;9.15;7.82;;;;;;;12.40;71.61;101644.78;5070787;28;20040;-46
2020/12/20 07:06:07;;;;;;;8.20;6.88;;;;;;;12.35;72.05;101648.16;5071816;28;20025;-45
2020/12/20 07:08:34;;;;;;;7.95;6.28;;;;;;;12.37;71.60;101651.44;5071567;28;20040;-46
2020/12/20 07:11:02;;;;;;;7.78;6.95;;;;;;;12.49;71.33;101660.34;5071241;28;20032;-44
2020/12/20 07:13:42;;;;;;;8.23;6.40;;;;;;;12.35;71.66;101664.28;5071042;28;20045;-45
2020/12/20 07:16:14;;;;;;;6.80;6.18;;;;;;;12.37;71.61;101662.19;5070968;28;20036;-47
2020/12/20 07:18:49;;;;;;;9.18;7.18;;;;;;;12.37;71.73;101670.25;5070912;28;20037;-48
2020/12/20 07:21:18;;;;;;;17.20;7.50;;;;;;;12.16;72.16;101666.19;5071003;28;20119;-44
2020/12/20 07:23:46;;;;;;;20.40;7.47;;;;;;;12.22;72.34;101670.69;5070963;28;20047;-48
2020/12/20 07:26:11;;;;;;;7.70;6.07;;;;;;;12.36;72.35;101671.31;5063452;28;20020;-46
2020/12/20 07:28:37;;;;;;;7.18;6.20;;;;;;;12.46;71.67;101671.59;5070730;28;20101;-44
2020/12/20 07:31:02;;;;;;;14.38;7.07;;;;;;;12.35;71.72;101671.53;5071216;28;20498;-44
2020/12/20 07:33:28;;;;;;;6.95;5.55;;;;;;;12.21;72.54;101671.72;5070866;28;20072;-46
2020/12/20 07:35:53;;;;;;;7.07;5.50;;;;;;;12.31;72.01;101673.88;5071227;28;20092;-48
2020/12/20 07:38:19;;;;;;;10.57;7.95;;;;;;;12.51;71.54;101678.16;5071037;28;20036;-46
2020/12/20 07:40:44;;;;;;;22.42;8.48;;;;;;;12.57;71.14;101679.91;5071174;28;20383;-48
2020/12/20 07:43:10;;;;;;;19.25;9.50;;;;;;;12.55;71.18;101687.38;5070548;28;20071;-48
2020/12/20 07:45:35;;;;;;;16.15;9.15;;;;;;;12.59;71.06;101693.97;5070753;28;20103;-43
2020/12/20 07:48:01;;;;;;;16.60;10.07;;;;;;;12.54;71.68;101685.75;5074301;28;21939;-46
2020/12/20 07:50:27;;;;;;;13.38;10.73;;;;;;;12.62;71.46;101697.03;5074837;28;20048;-44
2020/12/20 07:52:53;;;;;;;12.73;10.18;;;;;;;12.62;71.68;101699.72;5074745;28;20039;-44
2020/12/20 07:55:18;;;;;;;14.90;10.20;;;;;;;12.64;71.31;101694.91;5074624;28;20039;-46
2020/12/20 07:57:48;;;;;;;11.43;10.30;;;;;;;12.64;71.57;101700.28;5074567;28;20024;-44
2020/12/20 08:00:15;;;;;;;7.70;6.90;;;;;;;12.55;71.86;101701.69;5074563;28;20174;-45
2020/12/20 08:02:40;;;;;;;30.98;27.63;;;;;;;12.67;71.73;101716.00;5074973;28;20315;-44
2020/12/20 08:05:07;;;;;;;39.85;29.20;;;;;;;12.73;71.51;101718.78;5074294;28;20037;-46
2020/12/20 08:07:33;;;;;;;40.55;30.60;;;;;;;12.68;71.51;101724.88;5074172;28;20062;-43
2020/12/20 08:09:59;;;;;;;48.08;31.38;;;;;;;12.64;71.50;101721.81;5074197;28;20051;-44
2020/12/20 08:12:26;;;;;;;40.45;29.10;;;;;;;12.78;71.32;101727.84;5073801;28;20369;-43
2020/12/20 08:15:08;;;;;;;33.10;27.15;;;;;;;12.74;71.90;101723.94;5073836;28;20047;-44
2020/12/20 08:17:35;;;;;;;32.10;21.45;;;;;;;12.77;71.45;101726.19;5073919;28;20107;-43
2020/12/20 08:20:03;;;;;;;27.13;22.02;;;;;;;12.74;71.56;101725.81;5073743;28;20090;-46
2020/12/20 08:22:32;;;;;;;20.90;17.25;;;;;;;12.75;71.60;101730.97;5070851;28;20036;-46
2020/12/20 08:24:59;;;;;;;23.45;20.27;;;;;;;12.80;71.37;101724.91;5073027;28;20043;-43
2020/12/20 08:27:32;;;;;;;26.55;21.80;;;;;;;12.82;71.55;101729.00;5072845;28;20036;-46
2020/12/20 08:30:00;;;;;;;27.05;22.65;;;;;;;12.80;71.75;101723.03;5073870;28;20532;-44
2020/12/20 08:32:37;;;;;;;30.65;22.67;;;;;;;12.90;71.07;101730.53;5068749;28;20466;-46
2020/12/20 08:35:14;;;;;;;37.67;25.95;;;;;;;12.93;71.48;101727.38;5070249;28;20109;-43
2020/12/20 08:37:40;;;;;;;36.33;32.58;;;;;;;12.92;71.65;101733.00;5070646;28;20036;-43
2020/12/20 08:40:13;;;;;;;35.60;29.73;;;;;;;12.94;71.33;101737.13;5071157;28;20048;-45
2020/12/20 08:42:40;;;;;;;31.52;25.15;;;;;;;12.98;71.63;101742.84;5071818;28;20036;-46
2020/12/20 08:45:18;;;;;;;30.67;24.85;;;;;;;12.95;72.29;101743.31;5071866;28;20125;-44
2020/12/20 08:47:44;;;;;;;38.92;25.40;;;;;;;12.98;72.17;101740.16;5071939;28;20197;-47
2020/12/20 08:50:11;;;;;;;31.55;23.08;;;;;;;13.02;71.67;101744.84;5069235;28;20102;-46
2020/12/20 08:52:37;;;;;;;51.60;32.65;;;;;;;13.04;71.53;101745.44;5072016;28;20098;-43
2020/12/20 08:55:05;;;;;;;56.72;44.38;;;;;;;13.05;71.68;101752.47;5072593;28;20044;-45
2020/12/20 08:57:32;;;;;;;55.80;40.58;;;;;;;13.09;71.98;101752.81;5072320;28;20036;-45
2020/12/20 09:00:15;;;;;;;53.75;40.50;;;;;;;13.11;71.84;101758.78;5073052;28;20348;-43
2020/12/20 09:02:41;;;;;;;56.90;40.22;;;;;;;13.08;72.15;101764.66;5071617;28;20115;-46
2020/12/20 09:05:11;;;;;;;46.60;36.15;;;;;;;13.10;72.18;101756.34;5072459;28;20127;-45
2020/12/20 09:07:44;;;;;;;55.70;36.10;;;;;;;13.14;72.24;101762.91;5072982;28;20032;-46
2020/12/20 09:10:34;;;;;;;50.80;35.75;;;;;;;13.18;72.47;101767.59;5065482;28;20045;-44
2020/12/20 09:13:07;;;;;;;160.85;104.90;;;;;;;13.20;72.16;101756.56;5071955;28;20115;-43
2020/12/20 09:15:34;;;;;;;161.23;111.07;;;;;;;13.19;72.85;101761.16;5072591;28;20036;-45
2020/12/20 09:18:21;;;;;;;91.68;74.45;;;;;;;13.16;73.29;101767.00;5072218;28;20036;-44
2020/12/20 09:35:49;;;;;;;77.03;66.60;;;;;;;13.27;72.78;101799.56;5093262;27;20378;-45
2020/12/20 09:38:15;;;;;;;89.03;68.40;;;;;;;13.31;72.73;101804.28;5080712;28;20036;-44
2020/12/20 09:40:40;;;;;;;86.32;61.42;;;;;;;13.37;72.33;101802.53;5088939;28;20029;-43
2020/12/20 09:43:09;;;;;;;61.35;54.47;;;;;;;13.38;72.53;101806.88;5088471;28;20032;-42
2020/12/20 09:45:34;;;;;;;71.72;61.75;;;;;;;13.39;72.16;101801.28;5088862;28;20575;-43
2020/12/20 09:47:59;;;;;;;95.93;63.03;;;;;;;13.39;72.56;101797.75;5088414;28;20048;-43
2020/12/20 09:50:25;;;;;;;64.80;53.88;;;;;;;13.45;72.38;101799.53;5088219;28;20390;-47
2020/12/20 09:52:50;;;;;;;66.78;55.70;;;;;;;13.52;73.12;101797.53;5087332;28;20031;-45
2020/12/20 09:55:16;;;;;;;63.20;51.92;;;;;;;13.54;72.74;101787.34;5079787;28;20029;-43
2020/12/20 09:57:41;;;;;;;70.63;55.20;;;;;;;13.59;73.19;101789.34;5082781;28;20029;-44
2020/12/20 10:00:07;;;;;;;74.65;50.17;;;;;;;13.59;73.83;101787.47;5078491;28;20544;-44
2020/12/20 10:02:32;;;;;;;60.80;47.08;;;;;;;13.63;73.98;101787.81;5088095;28;20028;-44
2020/12/20 10:04:57;;;;;;;47.00;41.95;;;;;;;13.63;73.67;101792.38;5087102;28;20454;-42
2020/12/20 10:07:23;;;;;;;68.72;54.22;;;;;;;13.68;73.76;101789.81;5086409;28;20032;-44
2020/12/20 10:09:49;;;;;;;79.35;58.55;;;;;;;13.69;73.57;101791.44;5084910;28;20066;-46
2020/12/20 10:12:16;;;;;;;74.80;56.55;;;;;;;13.66;73.32;101795.44;5077263;28;20028;-43
2020/12/20 10:14:42;;;;;;;80.20;60.33;;;;;;;13.67;73.94;101801.63;5085955;28;20033;-43
2020/12/20 10:17:07;;;;;;;91.38;77.47;;;;;;;13.69;74.07;101802.22;5079788;28;20055;-46
2020/12/20 10:19:33;;;;;;;76.90;67.65;;;;;;;13.69;74.54;101804.91;5087570;28;20393;-45
2020/12/20 10:21:58;;;;;;;77.93;69.72;;;;;;;13.73;74.83;101806.91;5088170;28;20543;-45
2020/12/20 10:24:23;;;;;;;99.60;70.15;;;;;;;13.81;75.17;101803.03;5086255;28;20542;-44
2020/12/20 10:26:49;;;;;;;73.25;58.67;;;;;;;13.81;75.07;101808.44;5086238;28;20473;-42
2020/12/20 10:29:18;;;;;;;73.78;60.00;;;;;;;13.85;75.00;101803.38;5077339;28;20090;-43
2020/12/20 10:31:45;;;;;;;84.82;62.58;;;;;;;13.89;74.63;101801.88;5086120;28;20024;-43
2020/12/20 10:34:11;;;;;;;82.90;72.25;;;;;;;13.88;74.62;101798.34;5085596;28;20063;-43
2020/12/20 10:36:37;;;;;;;127.60;97.35;;;;;;;13.91;74.63;101805.97;5073045;28;20032;-45
2020/12/20 10:39:07;;;;;;;148.23;106.43;;;;;;;13.92;74.42;101798.69;5072610;28;20064;-47
2020/12/20 10:41:34;;;;;;;136.85;103.80;;;;;;;13.93;74.16;101803.84;5072724;28;20028;-44
2020/12/20 10:44:00;;;;;;;131.05;107.13;;;;;;;13.99;74.20;101797.53;5073958;28;20037;-43
2020/12/20 10:46:26;;;;;;;173.77;133.77;;;;;;;13.93;74.43;101801.16;5074530;28;20039;-42
2020/12/20 10:48:51;;;;;;;203.35;142.25;;;;;;;14.01;75.13;101800.00;5073977;28;20043;-42
2020/12/20 10:51:19;;;;;;;186.13;133.35;;;;;;;14.03;74.82;101787.09;5074054;28;20025;-44
2020/12/20 10:53:47;;;;;;;111.20;93.88;;;;;;;14.06;75.89;101794.72;5073901;28;20546;-43
2020/12/20 10:56:15;;;;;;;138.20;98.13;;;;;;;14.11;75.55;101799.38;5073256;28;20394;-44
2020/12/20 10:58:42;;;;;;;127.43;97.10;;;;;;;14.11;76.13;101788.59;5074128;28;20044;-43
2020/12/20 11:01:08;;;;;;;93.10;73.03;;;;;;;14.11;75.45;101793.97;5073500;28;20032;-44
2020/12/20 11:03:34;;;;;;;72.88;57.13;;;;;;;14.15;75.29;101789.75;5073080;28;20037;-45
2020/12/20 11:05:59;;;;;;;77.68;56.90;;;;;;;14.14;75.62;101786.22;5073378;28;20033;-42
2020/12/20 11:08:26;;;;;;;89.15;67.28;;;;;;;14.17;74.90;101790.34;5073524;28;20359;-43
2020/12/20 11:10:52;;;;;;;79.95;69.65;;;;;;;14.16;75.69;101786.84;5072900;28;20024;-43
2020/12/20 11:13:18;;;;;;;90.70;71.22;;;;;;;14.21;75.31;101791.50;5073267;28;20047;-43
2020/12/20 11:15:46;;;;;;;61.72;49.47;;;;;;;14.28;74.74;101770.59;5073056;28;20025;-44
2020/12/20 11:18:12;;;;;;;75.88;52.35;;;;;;;14.27;75.03;101777.06;5073084;28;20044;-43
2020/12/20 11:20:38;;;;;;;60.63;47.67;;;;;;;14.31;75.21;101767.44;5073344;28;20410;-43
2020/12/20 11:23:04;;;;;;;49.03;37.92;;;;;;;14.31;75.93;101762.03;5072891;28;20036;-44
2020/12/20 11:25:31;;;;;;;35.55;30.92;;;;;;;14.43;75.84;101762.00;5072171;28;20033;-48
2020/12/20 11:27:57;;;;;;;44.13;30.23;;;;;;;14.53;75.56;101766.75;5072896;28;20032;-45
2020/12/20 11:30:22;;;;;;;38.45;26.42;;;;;;;14.61;76.06;101760.22;5073252;28;20047;-43